Time;durP1;ratioP1;P1;durP2;ratioP2;P2;SDS_P1;SDS_P2;PMS_P1;PMS_P2;Temp;Humidity;BMP_temperature;BMP_pressure;BME280_temperature;BME280_humidity;BME280_pressure;Samples;Min_cycle;Max_cycle;Signal;HPM_P1;HPM_P2
2022/08/26 00:00:32;;;;;;;19.10;11.75;;;;;;;19.40;77.09;100128.95;1720420;82;21055;-69
2022/08/26 00:02:58;;;;;;;23.52;11.60;;;;;;;19.37;77.02;100125.19;1720792;82;21193;-66
2022/08/26 00:05:25;;;;;;;21.95;11.43;;;;;;;19.36;77.14;100127.47;1702368;83;21079;-67
2022/08/26 00:07:52;;;;;;;15.72;10.43;;;;;;;19.37;76.91;100129.65;1720704;82;21241;-68
2022/08/26 00:10:19;;;;;;;20.60;10.58;;;;;;;19.36;76.73;100127.47;1720949;82;21145;-68
2022/08/26 00:12:46;;;;;;;19.73;11.38;;;;;;;19.34;76.64;100125.39;1720657;83;21087;-68
2022/08/26 00:15:17;;;;;;;19.55;11.45;;;;;;;19.33;76.60;100121.03;1720922;83;21106;-69
2022/08/26 00:17:44;;;;;;;16.27;11.35;;;;;;;19.33;76.63;100125.04;1720748;82;21048;-69
2022/08/26 00:20:16;;;;;;;16.42;11.38;;;;;;;19.31;76.62;100118.11;1720680;82;21036;-68
2022/08/26 00:22:42;;;;;;;18.27;10.98;;;;;;;19.29;76.58;100116.39;1720722;83;21584;-68
2022/08/26 00:25:09;;;;;;;21.48;11.93;;;;;;;19.28;76.59;100113.85;1720754;83;21090;-67
2022/08/26 00:27:36;;;;;;;19.60;11.95;;;;;;;19.25;76.73;100109.56;1717663;82;21320;-67
2022/08/26 00:30:06;;;;;;;18.92;11.65;;;;;;;19.23;76.62;100109.30;1712697;83;21039;-68
2022/08/26 00:32:33;;;;;;;21.13;11.20;;;;;;;19.23;76.47;100113.31;1713151;82;21079;-67
2022/08/26 00:34:59;;;;;;;15.43;10.43;;;;;;;19.23;76.32;100113.31;1712538;83;21853;-68
2022/08/26 00:37:26;;;;;;;18.50;11.40;;;;;;;19.22;76.13;100116.95;1712993;82;21119;-67
2022/08/26 00:39:53;;;;;;;20.12;11.22;;;;;;;19.19;76.10;100107.36;1713020;82;21106;-68
2022/08/26 00:42:20;;;;;;;14.55;10.98;;;;;;;19.20;76.39;100110.88;1712883;82;21036;-67
2022/08/26 00:44:46;;;;;;;13.78;10.90;;;;;;;19.20;76.45;100108.20;1713061;83;21047;-68
2022/08/26 00:47:21;;;;;;;18.25;10.60;;;;;;;19.18;76.25;100107.47;1712901;83;21110;-68
2022/08/26 00:49:48;;;;;;;19.50;10.75;;;;;;;19.14;76.34;100106.86;1712752;82;21079;-68
2022/08/26 00:52:18;;;;;;;16.25;10.55;;;;;;;19.13;76.21;100105.63;1712966;83;21272;-67
2022/08/26 00:54:56;;;;;;;18.20;10.90;;;;;;;19.10;76.27;100101.85;1734912;82;21066;-68
2022/08/26 00:57:24;;;;;;;16.90;10.72;;;;;;;19.08;76.09;100104.63;1742314;82;21057;-67
2022/08/26 00:59:55;;;;;;;25.30;11.35;;;;;;;19.04;76.26;100102.64;1742475;82;21041;-67
2022/08/26 01:02:22;;;;;;;18.95;11.05;;;;;;;19.03;76.31;100102.29;1742564;82;21056;-68
2022/08/26 01:04:53;;;;;;;18.80;11.05;;;;;;;18.99;76.25;100098.13;1742706;82;21581;-68
2022/08/26 01:07:20;;;;;;;21.20;10.43;;;;;;;18.99;76.15;100098.13;1742584;82;21014;-67
2022/08/26 01:09:47;;;;;;;19.48;10.50;;;;;;;18.98;76.20;100098.23;1742574;82;21042;-67
2022/08/26 01:12:14;;;;;;;18.67;11.40;;;;;;;18.94;76.12;100097.62;1742478;82;21010;-68
2022/08/26 01:14:41;;;;;;;20.90;10.78;;;;;;;18.93;76.14;100095.89;1742452;82;21526;-68
2022/08/26 01:17:07;;;;;;;18.60;10.78;;;;;;;18.93;76.12;100098.56;1742773;82;21134;-67
2022/08/26 01:19:53;;;;;;;20.80;10.70;;;;;;;18.91;76.09;100095.19;1742491;82;21070;-68
2022/08/26 01:22:31;;;;;;;18.82;10.72;;;;;;;18.88;76.20;100096.72;1742795;82;21526;-67
2022/08/26 01:24:58;;;;;;;21.12;11.00;;;;;;;18.86;76.38;100096.84;1742724;82;21045;-67
2022/08/26 01:27:26;;;;;;;21.42;11.10;;;;;;;18.82;76.47;100095.84;1744249;82;21127;-68
2022/08/26 01:29:52;;;;;;;15.60;10.20;;;;;;;18.78;76.58;100094.36;1750397;82;21233;-67
2022/08/26 01:32:20;;;;;;;17.05;11.68;;;;;;;18.75;76.62;100090.06;1750651;82;21600;-69
2022/08/26 01:34:47;;;;;;;18.85;11.00;;;;;;;18.71;76.70;100089.06;1750539;82;21049;-67
2022/08/26 01:37:18;;;;;;;15.40;10.45;;;;;;;18.68;76.81;100093.26;1750614;82;21105;-69
2022/08/26 01:39:49;;;;;;;18.48;10.93;;;;;;;18.63;76.82;100091.80;1750523;82;21548;-67
2022/08/26 01:42:16;;;;;;;16.60;11.20;;;;;;;18.61;76.79;100088.84;1750808;82;21771;-67
2022/08/26 01:44:48;;;;;;;18.20;10.90;;;;;;;18.58;77.11;100089.06;1749895;82;21537;-67
2022/08/26 01:47:15;;;;;;;23.55;11.68;;;;;;;18.52;77.27;100089.03;1749805;82;21060;-68
2022/08/26 01:49:41;;;;;;;16.93;10.38;;;;;;;18.51;77.44;100084.64;1750200;82;21077;-67
2022/08/26 01:52:08;;;;;;;17.52;10.80;;;;;;;18.45;77.83;100085.10;1721087;82;21029;-68
2022/08/26 01:54:35;;;;;;;17.98;10.35;;;;;;;18.42;78.05;100087.47;1729954;82;21904;-68
2022/08/26 01:57:02;;;;;;;18.50;11.33;;;;;;;18.40;78.28;100087.22;1720177;83;21862;-68
2022/08/26 01:59:29;;;;;;;20.15;10.60;;;;;;;18.35;78.00;100076.88;1720215;82;21054;-68
2022/08/26 02:01:55;;;;;;;16.02;10.75;;;;;;;18.34;78.39;100079.67;1743599;82;21548;-67
2022/08/26 02:04:42;;;;;;;16.60;11.15;;;;;;;18.30;78.24;100080.84;1750520;82;21605;-69
2022/08/26 02:07:09;;;;;;;20.17;10.60;;;;;;;18.23;78.19;100077.74;1750242;82;21153;-66
2022/08/26 02:09:38;;;;;;;17.10;10.25;;;;;;;18.21;78.29;100080.98;1750471;82;21107;-68
2022/08/26 02:12:05;;;;;;;17.37;10.58;;;;;;;18.14;78.58;100077.89;1750441;82;21610;-67
2022/08/26 02:14:40;;;;;;;16.85;10.82;;;;;;;18.11;78.68;100079.45;1750692;82;21608;-67
2022/08/26 02:17:10;;;;;;;18.40;10.70;;;;;;;18.07;78.69;100080.61;1750574;82;21056;-68
2022/08/26 02:19:40;;;;;;;17.55;11.00;;;;;;;18.04;78.82;100083.50;1749799;82;21538;-68
2022/08/26 02:22:12;;;;;;;16.10;10.35;;;;;;;18.00;79.05;100084.66;1750863;82;21502;-67
2022/08/26 02:24:56;;;;;;;26.35;11.45;;;;;;;18.02;79.21;100086.75;1750741;82;21021;-69
2022/08/26 02:27:29;;;;;;;17.10;10.55;;;;;;;18.00;79.34;100084.18;1750267;82;21033;-69
2022/08/26 02:30:12;;;;;;;18.27;10.80;;;;;;;17.95;80.05;100074.81;1750180;82;21117;-68
2022/08/26 02:32:39;;;;;;;15.70;10.90;;;;;;;17.92;79.91;100081.66;1749921;82;22164;-67
2022/08/26 02:35:08;;;;;;;19.27;10.28;;;;;;;17.90;79.95;100085.78;1750085;82;21080;-68
2022/08/26 02:37:34;;;;;;;22.42;11.18;;;;;;;17.89;79.87;100080.55;1750165;82;21062;-67
2022/08/26 02:40:03;;;;;;;16.30;11.03;;;;;;;17.85;79.91;100081.22;1750453;82;21025;-69
2022/08/26 02:42:29;;;;;;;16.50;9.90;;;;;;;17.82;80.06;100084.95;1750526;82;21045;-67
2022/08/26 02:44:55;;;;;;;19.98;10.72;;;;;;;17.78;80.10;100083.89;1714972;83;21176;-68
2022/08/26 02:47:24;;;;;;;18.07;11.12;;;;;;;17.73;80.09;100084.20;1750471;81;21044;-67
2022/08/26 02:49:51;;;;;;;20.32;10.55;;;;;;;17.69;80.34;100094.72;1750548;80;21096;-67
2022/08/26 02:52:17;;;;;;;18.92;10.75;;;;;;;17.67;80.23;100088.64;1751007;82;21100;-67
2022/08/26 02:54:44;;;;;;;19.07;10.50;;;;;;;17.65;80.38;100091.87;1727618;82;21108;-68
2022/08/26 02:57:10;;;;;;;14.40;10.53;;;;;;;17.61;80.74;100089.03;1719316;83;21128;-67
2022/08/26 02:59:38;;;;;;;19.30;10.55;;;;;;;17.55;81.11;100087.66;1718986;83;21507;-68
2022/08/26 03:02:05;;;;;;;15.35;11.22;;;;;;;17.52;81.37;100092.31;1746351;82;21565;-69
2022/08/26 03:04:33;;;;;;;17.65;10.18;;;;;;;17.49;81.51;100097.85;1750536;82;21088;-69
2022/08/26 03:07:00;;;;;;;21.65;10.78;;;;;;;17.46;81.69;100095.38;1750793;82;21093;-68
2022/08/26 03:09:26;;;;;;;15.15;9.95;;;;;;;17.44;81.83;100098.61;1750595;82;21258;-69
2022/08/26 03:11:54;;;;;;;20.82;10.32;;;;;;;17.43;82.05;100097.77;1750634;82;21060;-70
2022/08/26 03:14:22;;;;;;;15.35;10.00;;;;;;;17.41;82.15;100101.00;1750722;82;21104;-68
2022/08/26 03:16:53;;;;;;;16.42;10.48;;;;;;;17.40;82.07;100101.48;1750502;82;21050;-68
2022/08/26 03:19:21;;;;;;;18.65;10.55;;;;;;;17.38;82.11;100100.73;1750848;82;21088;-68
2022/08/26 03:21:47;;;;;;;18.42;10.58;;;;;;;17.38;81.98;100104.72;1750548;82;21980;-69
2022/08/26 03:24:14;;;;;;;15.68;10.20;;;;;;;17.38;81.87;100107.38;1750537;82;21061;-68
2022/08/26 03:26:41;;;;;;;18.00;10.13;;;;;;;17.38;81.86;100107.38;1750260;82;21169;-67
2022/08/26 03:31:53;;;;;;;16.02;10.13;;;;;;;17.49;81.49;100113.83;1750563;82;21060;-67
2022/08/26 03:34:19;;;;;;;17.12;9.90;;;;;;;17.59;80.97;100114.91;1750555;82;21557;-67
2022/08/26 03:36:46;;;;;;;17.15;9.80;;;;;;;17.67;80.54;100115.27;1750462;82;21450;-68
2022/08/26 03:39:12;;;;;;;12.60;9.18;;;;;;;17.72;80.01;100097.16;1750723;82;21576;-68
2022/08/26 03:41:39;;;;;;;12.55;9.43;;;;;;;17.93;79.16;100112.69;1750425;82;21557;-68
2022/08/26 03:44:07;;;;;;;13.93;9.95;;;;;;;18.08;78.42;100112.11;1750603;82;21592;-69
2022/08/26 03:46:34;;;;;;;20.65;9.50;;;;;;;18.28;77.62;100110.74;1750358;82;21153;-68
2022/08/26 03:49:01;;;;;;;18.45;9.55;;;;;;;18.45;76.56;100114.43;1750451;80;21046;-68
2022/08/26 03:51:28;;;;;;;16.93;8.85;;;;;;;18.62;75.50;100112.75;1750605;82;21018;-68
2022/08/26 03:53:55;;;;;;;18.42;9.60;;;;;;;18.82;74.44;100115.86;1738682;82;21007;-68
2022/08/26 03:56:22;;;;;;;15.40;8.93;;;;;;;19.02;72.98;100116.58;1720563;83;21117;-68
2022/08/26 03:58:48;;;;;;;16.60;8.45;;;;;;;19.23;69.95;100118.19;1720510;83;22654;-67
2022/08/26 04:01:15;;;;;;;17.23;8.93;;;;;;;19.44;70.70;100111.75;1720700;82;21552;-67
2022/08/26 04:03:56;;;;;;;18.32;9.13;;;;;;;19.70;69.57;100107.14;1720707;82;21051;-67
2022/08/26 04:06:29;;;;;;;18.10;8.75;;;;;;;19.94;68.35;100106.73;1720524;83;21083;-68
2022/08/26 04:08:59;;;;;;;18.52;9.13;;;;;;;20.17;66.98;100112.48;1720699;82;21552;-68
2022/08/26 04:11:30;;;;;;;14.65;8.23;;;;;;;20.38;64.75;100102.44;1720762;83;21095;-68
2022/08/26 04:13:58;;;;;;;;;;;;;;;20.58;64.67;100103.09;1723184;82;21385;-67
2022/08/26 04:16:25;;;;;;;14.80;7.90;;;;;;;20.87;63.64;100095.91;1720460;83;20629;-68
2022/08/26 04:18:51;;;;;;;17.07;8.98;;;;;;;21.10;62.59;100090.88;1720562;83;21567;-68
2022/08/26 04:21:18;;;;;;;16.57;8.40;;;;;;;21.36;61.91;100097.25;1720267;83;21563;-69
2022/08/26 04:23:44;;;;;;;15.55;8.23;;;;;;;21.62;60.66;100092.91;1720995;82;21080;-69
2022/08/26 04:26:10;;;;;;;14.05;7.28;;;;;;;21.86;59.23;100082.81;1720685;83;21074;-67
2022/08/26 04:28:37;;;;;;;17.23;8.20;;;;;;;22.07;58.61;100080.62;1718768;82;21024;-69
2022/08/26 04:31:06;;;;;;;14.85;7.62;;;;;;;22.38;57.83;100079.70;1712881;83;21072;-68
2022/08/26 04:33:32;;;;;;;11.40;7.35;;;;;;;22.68;56.28;100089.19;1712963;82;21111;-69
2022/08/26 04:36:01;;;;;;;15.13;7.83;;;;;;;22.90;55.21;100084.13;1713159;83;21080;-68
2022/08/26 04:38:28;;;;;;;17.62;7.75;;;;;;;23.19;54.00;100086.41;1712832;83;21085;-68
2022/08/26 04:40:55;;;;;;;16.70;7.90;;;;;;;23.46;53.29;100079.48;1702900;83;21047;-69
2022/08/26 04:43:21;;;;;;;10.72;7.40;;;;;;;23.80;52.15;100082.62;1713018;83;21043;-67
2022/08/26 04:45:47;;;;;;;19.45;7.90;;;;;;;23.96;51.06;100084.73;1713166;83;21051;-68
2022/08/26 04:48:14;;;;;;;15.72;7.78;;;;;;;24.10;49.74;100089.30;1713017;83;21274;-69
2022/08/26 04:50:41;;;;;;;12.18;7.62;;;;;;;24.24;49.57;100090.19;1712984;82;21067;-68
2022/08/26 04:53:07;;;;;;;19.55;7.17;;;;;;;24.42;48.86;100088.42;1715048;82;21092;-68
2022/08/26 04:55:34;;;;;;;12.82;7.28;;;;;;;24.61;47.91;100085.34;1706672;83;21580;-68
2022/08/26 04:58:01;;;;;;;14.75;7.55;;;;;;;24.80;47.92;100089.30;1707352;84;21049;-69
2022/08/26 05:00:28;;;;;;;18.15;8.13;;;;;;;25.06;46.92;100080.50;1706765;84;21190;-69
2022/08/26 05:02:54;;;;;;;18.02;7.58;;;;;;;25.22;46.08;100078.02;1707233;84;21050;-68
2022/08/26 05:05:21;;;;;;;12.95;6.65;;;;;;;25.32;45.33;100081.47;1706954;84;21062;-68
2022/08/26 05:07:48;;;;;;;14.68;7.12;;;;;;;25.46;44.25;100082.78;1706937;84;21030;-69
2022/08/26 05:10:16;;;;;;;13.15;7.22;;;;;;;25.58;43.94;100082.05;1706553;84;21034;-69
2022/08/26 05:12:49;;;;;;;15.03;7.15;;;;;;;25.71;43.45;100079.81;1706590;84;21142;-70
2022/08/26 05:15:24;;;;;;;12.05;6.70;;;;;;;25.87;42.15;100075.59;1742034;82;21069;-69
2022/08/26 05:17:49;;;;;;;18.02;7.75;;;;;;;26.03;43.47;100076.22;1740294;82;21014;-68
2022/08/26 05:20:16;;;;;;;17.48;7.75;;;;;;;26.36;42.32;100070.02;1706957;84;21010;-69
2022/08/26 05:22:44;;;;;;;16.50;7.03;;;;;;;26.67;40.87;100079.48;1742838;82;21084;-69
2022/08/26 05:25:10;;;;;;;18.92;7.85;;;;;;;26.82;40.60;100075.64;1742644;82;21309;-69
2022/08/26 05:27:38;;;;;;;17.42;7.83;;;;;;;26.96;39.15;100069.12;1742400;82;21113;-69
2022/08/26 05:30:08;;;;;;;19.27;7.55;;;;;;;27.04;39.20;100070.16;1712099;83;21057;-69
2022/08/26 05:32:35;;;;;;;22.77;7.85;;;;;;;27.15;38.72;100069.84;1714563;83;21104;-68
2022/08/26 05:35:03;;;;;;;16.85;8.18;;;;;;;27.28;38.67;100078.84;1750730;82;21068;-69
2022/08/26 05:37:29;;;;;;;14.15;7.25;;;;;;;27.56;38.33;100079.38;1750589;82;21757;-69
2022/08/26 05:39:56;;;;;;;23.10;8.13;;;;;;;27.82;38.04;100077.36;1714839;83;21067;-70
2022/08/26 05:42:22;;;;;;;24.70;7.92;;;;;;;28.13;37.43;100081.24;1714537;83;21187;-69
2022/08/26 05:44:52;;;;;;;17.00;7.33;;;;;;;28.35;36.69;100085.11;1714778;83;21632;-70
2022/08/26 05:47:19;;;;;;;23.98;7.40;;;;;;;28.61;36.55;100087.06;1714825;83;21593;-69
2022/08/26 05:49:45;;;;;;;19.65;6.95;;;;;;;28.75;36.03;100087.36;1714864;82;21116;-70
2022/08/26 05:52:12;;;;;;;18.87;7.30;;;;;;;28.76;35.82;100089.03;1714649;83;20998;-70
2022/08/26 05:54:39;;;;;;;24.30;7.33;;;;;;;28.86;35.68;100088.33;1714633;83;21049;-69
2022/08/26 05:57:05;;;;;;;22.42;6.62;;;;;;;29.00;35.05;100094.34;1750638;82;21027;-69
2022/08/26 05:59:32;;;;;;;16.60;6.58;;;;;;;29.12;34.08;100081.27;1750694;81;21079;-69
2022/08/26 06:01:58;;;;;;;13.90;6.53;;;;;;;29.34;34.10;100085.04;1750797;82;21113;-69
2022/08/26 06:04:24;;;;;;;18.30;6.62;;;;;;;29.38;33.38;100090.44;1750581;82;21048;-70
2022/08/26 06:06:51;;;;;;;16.65;6.72;;;;;;;29.49;33.64;100093.23;1750651;82;21057;-67
2022/08/26 06:09:17;;;;;;;18.48;6.20;;;;;;;29.48;33.20;100084.25;1750590;82;21081;-69
2022/08/26 06:11:44;;;;;;;18.92;6.25;;;;;;;29.52;33.09;100094.25;1750522;82;21052;-69
2022/08/26 06:14:11;;;;;;;18.57;6.67;;;;;;;29.70;33.27;100080.38;1750720;82;21850;-68
2022/08/26 06:16:39;;;;;;;17.48;6.37;;;;;;;29.99;33.29;100088.28;1750457;82;21018;-68
2022/08/26 06:19:06;;;;;;;14.28;5.90;;;;;;;30.38;32.55;100091.31;1751003;82;21086;-70
2022/08/26 06:21:34;;;;;;;11.80;5.92;;;;;;;30.73;32.16;100085.10;1750581;82;21598;-69
2022/08/26 06:26:57;;;;;;;19.05;6.03;;;;;;;31.51;30.48;100079.98;1746249;82;21266;-68
2022/08/26 06:29:27;;;;;;;22.20;6.28;;;;;;;31.64;30.40;100081.17;1748361;82;21025;-70
2022/08/26 06:31:54;;;;;;;26.30;6.62;;;;;;;31.70;29.69;100081.72;1742465;82;21018;-68
2022/08/26 06:34:21;;;;;;;15.70;5.67;;;;;;;31.79;30.64;100076.46;1743212;82;21107;-68
2022/08/26 06:36:48;;;;;;;23.42;6.42;;;;;;;32.01;29.77;100075.11;1742368;82;21084;-70
2022/08/26 06:39:16;;;;;;;11.55;5.72;;;;;;;32.33;29.21;100073.13;1742275;82;21145;-69
2022/08/26 06:41:44;;;;;;;16.02;6.17;;;;;;;32.57;29.05;100075.07;1742673;82;21045;-69
2022/08/26 06:44:13;;;;;;;13.18;5.30;;;;;;;32.78;29.21;100071.39;1742415;82;21022;-70
2022/08/26 06:46:40;;;;;;;15.00;5.53;;;;;;;33.11;28.28;100070.19;1742810;82;20998;-70
2022/08/26 06:49:07;;;;;;;17.87;5.97;;;;;;;33.28;27.93;100074.73;1742656;81;21084;-70
2022/08/26 06:51:36;;;;;;;20.70;6.95;;;;;;;33.43;27.98;100067.75;1742961;82;21018;-68
2022/08/26 06:54:03;;;;;;;16.60;6.25;;;;;;;33.60;27.76;100067.67;1729228;82;21063;-70
2022/08/26 06:56:39;;;;;;;13.40;5.50;;;;;;;33.79;27.51;100069.25;1712792;82;21005;-69
2022/08/26 06:59:07;;;;;;;15.72;5.75;;;;;;;33.80;27.20;100073.69;1712954;83;21051;-69
2022/08/26 07:01:37;;;;;;;17.77;4.62;;;;;;;33.88;27.31;100071.25;1712717;83;21043;-69
2022/08/26 07:04:05;;;;;;;12.68;4.95;;;;;;;33.98;26.83;100066.19;1713080;82;21746;-71
2022/08/26 07:06:39;;;;;;;16.45;5.65;;;;;;;33.88;26.73;100057.06;1712521;82;21051;-69
2022/08/26 07:09:07;;;;;;;14.38;4.97;;;;;;;33.74;27.21;100058.13;1713040;83;21071;-69
2022/08/26 07:11:35;;;;;;;12.93;4.75;;;;;;;33.76;27.33;100058.77;1712759;82;21573;-71
2022/08/26 07:14:02;;;;;;;18.62;5.53;;;;;;;33.73;27.59;100067.35;1713215;82;21036;-69
2022/08/26 07:16:29;;;;;;;19.82;6.20;;;;;;;33.78;27.26;100079.88;1712942;82;21229;-69
2022/08/26 07:18:55;;;;;;;14.83;5.22;;;;;;;33.89;27.37;100065.59;1713298;83;21031;-68
2022/08/26 07:21:23;;;;;;;15.70;5.95;;;;;;;33.97;27.37;100066.72;1713038;82;21063;-68
2022/08/26 07:23:49;;;;;;;20.55;5.47;;;;;;;34.15;27.27;100071.58;1713074;82;21060;-68
2022/08/26 07:26:21;;;;;;;25.30;5.53;;;;;;;34.37;26.81;100065.34;1713281;82;21035;-70
2022/08/26 07:28:49;;;;;;;20.70;6.00;;;;;;;34.50;26.26;100067.18;1712829;83;21495;-70
2022/08/26 07:31:16;;;;;;;20.23;5.53;;;;;;;34.77;26.93;100061.13;1719743;82;21020;-68
2022/08/26 07:33:43;;;;;;;18.32;5.42;;;;;;;35.10;25.23;100053.27;1720781;83;21031;-71
2022/08/26 07:36:11;;;;;;;16.30;4.97;;;;;;;35.19;25.47;100049.24;1720504;82;21000;-70
2022/08/26 07:38:38;;;;;;;20.62;5.60;;;;;;;35.43;25.25;100052.23;1720600;83;22169;-71
2022/08/26 07:41:05;;;;;;;15.65;4.80;;;;;;;35.48;24.30;100047.79;1720713;83;21306;-69
2022/08/26 07:43:34;;;;;;;25.77;5.20;;;;;;;35.48;24.12;100051.06;1720394;83;21543;-69
2022/08/26 07:46:01;;;;;;;18.35;5.40;;;;;;;35.45;23.57;100051.48;1720488;82;21618;-67
2022/08/26 07:48:28;;;;;;;18.52;4.42;;;;;;;35.34;23.83;100039.88;1720693;82;21518;-69
2022/08/26 07:50:54;;;;;;;20.17;4.78;;;;;;;35.42;23.39;100036.87;1720622;83;21062;-68
2022/08/26 07:53:21;;;;;;;18.32;5.10;;;;;;;35.37;23.69;100046.30;1720541;83;21312;-69
2022/08/26 07:55:48;;;;;;;20.72;5.17;;;;;;;35.18;23.62;100042.11;1685658;84;21526;-70
2022/08/26 07:58:15;;;;;;;29.92;5.83;;;;;;;35.15;24.10;100032.95;1720685;82;21089;-69
2022/08/26 08:00:42;;;;;;;19.15;4.80;;;;;;;35.33;23.87;100028.63;1685939;85;21107;-69
2022/08/26 08:03:08;;;;;;;27.10;6.22;;;;;;;35.29;23.38;100028.22;1720819;83;21014;-70
2022/08/26 08:05:35;;;;;;;18.75;4.80;;;;;;;35.13;23.69;100033.69;1720564;82;21234;-68
2022/08/26 08:08:05;;;;;;;16.45;4.22;;;;;;;35.22;24.13;100029.63;1720429;83;21522;-68
2022/08/26 08:10:33;;;;;;;24.02;5.05;;;;;;;35.25;23.11;100023.73;1720625;82;21065;-70
2022/08/26 08:13:01;;;;;;;25.72;5.72;;;;;;;35.34;23.16;100024.31;1720623;83;21045;-69
2022/08/26 08:15:29;;;;;;;15.68;4.25;;;;;;;35.28;22.45;100021.91;1720682;83;21065;-68
2022/08/26 08:17:56;;;;;;;14.20;4.35;;;;;;;35.24;22.88;100017.11;1720745;83;21069;-70
2022/08/26 08:20:24;;;;;;;18.37;4.05;;;;;;;35.14;22.82;100013.49;1685799;84;21100;-70
2022/08/26 08:22:50;;;;;;;19.62;3.65;;;;;;;35.19;23.22;100012.83;1720457;82;21101;-69
2022/08/26 08:25:17;;;;;;;24.40;4.62;;;;;;;35.19;22.56;100009.56;1685813;84;21084;-69
2022/08/26 08:27:44;;;;;;;21.00;3.85;;;;;;;35.09;22.68;100007.81;1720600;83;21092;-69
2022/08/26 08:30:12;;;;;;;22.17;4.00;;;;;;;34.94;22.74;100010.00;1685789;84;21170;-70
2022/08/26 08:32:38;;;;;;;17.25;4.20;;;;;;;34.96;23.07;100012.00;1747656;82;21147;-70
2022/08/26 08:35:07;;;;;;;31.00;4.85;;;;;;;35.16;22.80;100006.44;1747671;82;21108;-70
2022/08/26 08:37:34;;;;;;;12.63;3.58;;;;;;;35.34;22.26;99996.94;1747414;82;21014;-69
2022/08/26 08:40:03;;;;;;;16.90;3.98;;;;;;;35.47;22.18;99993.23;1747680;82;21045;-70
2022/08/26 08:44:41;;;;;;;18.67;3.47;;;;;;;35.42;22.62;99993.08;1796454;79;22699;-68
2022/08/26 08:47:32;;;;;;;24.40;5.28;;;;;;;35.61;21.41;99989.34;1756520;80;21093;-69
2022/08/26 08:50:03;;;;;;;20.23;3.98;;;;;;;35.73;21.18;99988.61;1736359;82;21295;-71
2022/08/26 08:52:36;;;;;;;18.17;3.62;;;;;;;35.80;21.26;99997.60;1747523;82;21057;-70
2022/08/26 08:55:05;;;;;;;25.90;3.85;;;;;;;35.75;21.15;99986.48;1748081;82;21509;-69
2022/08/26 08:58:07;;;;;;;30.82;3.83;;;;;;;35.79;20.58;99983.61;1747949;82;21566;-69
2022/08/26 09:00:54;;;;;;;21.35;3.95;;;;;;;35.59;20.33;99987.36;1747952;82;21593;-71
2022/08/26 09:03:50;;;;;;;14.53;3.37;;;;;;;35.18;21.23;99987.37;1730055;82;21199;-71
2022/08/26 09:06:17;;;;;;;24.27;3.55;;;;;;;35.27;21.88;99988.77;1747804;82;20981;-71
2022/08/26 09:08:48;;;;;;;30.00;3.45;;;;;;;35.47;20.48;99986.39;1748141;82;21069;-70
2022/08/26 09:11:14;;;;;;;19.85;3.42;;;;;;;35.37;20.32;99988.27;1748018;82;21003;-71
2022/08/26 09:13:48;;;;;;;23.73;3.17;;;;;;;35.25;21.15;99979.94;1748165;82;21127;-70
2022/08/26 09:16:35;;;;;;;11.75;2.83;;;;;;;35.49;20.89;99971.95;1747871;82;21264;-70
2022/08/26 09:19:10;;;;;;;32.25;4.47;;;;;;;35.69;20.47;99967.16;1747992;82;21089;-70
2022/08/26 09:21:36;;;;;;;27.13;3.05;;;;;;;35.67;19.59;99967.91;1747603;82;21056;-69
2022/08/26 09:24:03;;;;;;;176.70;10.98;;;;;;;35.47;18.25;99974.06;1748304;82;21057;-70
2022/08/26 09:26:44;;;;;;;30.88;2.80;;;;;;;35.19;18.13;99975.34;1747950;82;21085;-69
2022/08/26 09:29:19;;;;;;;20.90;2.45;;;;;;;35.03;18.20;99979.95;1748496;81;21731;-70
2022/08/26 09:31:45;;;;;;;24.27;2.80;;;;;;;34.84;18.49;99974.92;1747833;82;21054;-70
2022/08/26 09:34:23;;;;;;;18.10;2.72;;;;;;;34.78;17.69;99975.26;1748241;82;21113;-69
2022/08/26 09:36:55;;;;;;;18.85;2.80;;;;;;;34.46;18.97;99979.30;1718314;82;21053;-69
2022/08/26 09:39:35;;;;;;;9.98;2.12;;;;;;;34.54;18.85;99980.11;1748125;82;21093;-68
2022/08/26 09:42:21;;;;;;;;;;;;;;;34.59;18.29;99974.81;1750557;82;21523;-68
2022/08/26 09:45:05;;;;;;;14.78;2.10;;;;;;;34.58;17.72;99978.59;1735914;81;20152;-70
2022/08/26 09:47:47;;;;;;;10.75;2.30;;;;;;;34.57;17.60;99976.93;1734628;82;21019;-69
2022/08/26 09:50:31;;;;;;;13.32;2.58;;;;;;;34.48;18.08;99974.42;1734770;82;21109;-69
2022/08/26 09:53:20;;;;;;;12.55;2.20;;;;;;;34.50;18.48;99972.02;1734875;82;21048;-71
2022/08/26 09:55:53;;;;;;;9.23;2.40;;;;;;;34.26;17.10;99973.08;1705234;84;21835;-70
2022/08/26 09:58:37;;;;;;;10.82;2.47;;;;;;;33.92;17.78;99969.55;1702803;83;21049;-70
2022/08/26 10:01:06;;;;;;;17.07;2.27;;;;;;;33.58;17.40;99970.65;1705092;83;21073;-68
2022/08/26 10:03:36;;;;;;;15.18;2.17;;;;;;;33.35;17.99;99970.52;1704711;84;21610;-70
2022/08/26 10:06:19;;;;;;;13.80;2.53;;;;;;;33.51;17.98;99972.52;1705437;84;21656;-69
2022/08/26 10:08:58;;;;;;;20.08;2.20;;;;;;;33.56;18.13;99981.73;1704907;84;22027;-69
2022/08/26 10:11:48;;;;;;;16.37;2.10;;;;;;;33.50;17.75;99968.95;1704976;83;21690;-69
2022/08/26 10:14:32;;;;;;;27.77;3.60;;;;;;;33.59;17.72;99964.98;1705279;84;21085;-69
2022/08/26 10:17:22;;;;;;;16.57;1.87;;;;;;;33.80;17.70;99971.27;1705133;84;21066;-70
2022/08/26 10:19:58;;;;;;;43.28;3.98;;;;;;;33.86;17.30;99967.66;1705270;83;21185;-70
2022/08/26 10:22:56;;;;;;;42.75;3.25;;;;;;;33.87;17.41;99969.86;1704706;83;21586;-71
2022/08/26 10:25:33;;;;;;;8.03;2.05;;;;;;;34.10;17.51;99976.28;1704973;84;21597;-70
2022/08/26 10:28:05;;;;;;;9.33;1.80;;;;;;;34.39;17.43;99972.16;1704994;84;21053;-70
2022/08/26 10:30:58;;;;;;;25.43;2.77;;;;;;;34.25;16.27;99950.34;1704761;84;21522;-71
2022/08/26 10:33:25;;;;;;;17.07;1.77;;;;;;;33.73;16.61;99964.95;1705023;84;21034;-70
2022/08/26 10:36:02;;;;;;;42.08;3.67;;;;;;;33.49;16.58;99968.63;1704672;84;21829;-70
2022/08/26 10:38:33;;;;;;;16.85;2.20;;;;;;;33.37;17.03;99968.95;1704892;84;21133;-69
2022/08/26 10:41:10;;;;;;;26.75;2.22;;;;;;;33.45;16.50;99963.26;1704564;84;21633;-69
2022/08/26 10:43:51;;;;;;;37.80;3.15;;;;;;;33.64;16.15;99967.92;1708298;83;21061;-69
2022/08/26 10:46:21;;;;;;;12.40;2.05;;;;;;;33.63;15.87;99966.22;1718074;83;21084;-69
2022/08/26 10:49:11;;;;;;;18.52;2.27;;;;;;;33.68;16.26;99972.95;1718358;83;21826;-69
2022/08/26 10:51:54;;;;;;;12.35;2.12;;;;;;;33.80;16.06;99976.73;1718283;83;21128;-69
2022/08/26 10:54:43;;;;;;;7.83;1.95;;;;;;;33.69;16.63;99962.35;1735700;82;21089;-69
2022/08/26 10:57:25;;;;;;;29.27;3.50;;;;;;;33.62;17.03;99969.19;1748358;82;21077;-69
2022/08/26 11:03:30;;;;;;;8.98;2.00;;;;;;;33.72;17.13;99964.12;1748137;82;21232;-70
2022/08/26 11:06:27;;;;;;;22.00;2.62;;;;;;;33.78;16.92;99981.56;1719994;82;21093;-70
2022/08/26 11:09:03;;;;;;;10.38;2.75;;;;;;;33.61;16.49;99961.53;1748282;82;21068;-71
2022/08/26 11:11:44;;;;;;;10.15;2.70;;;;;;;33.63;17.38;99960.77;1748064;82;20999;-69
2022/08/26 11:14:26;;;;;;;13.65;2.45;;;;;;;33.60;17.97;99966.66;1748295;82;21037;-70
2022/08/26 11:16:53;;;;;;;11.90;2.60;;;;;;;33.78;17.42;99969.27;1748131;81;21126;-69
2022/08/26 11:19:41;;;;;;;11.48;2.33;;;;;;;33.90;17.66;99966.19;1748148;82;21352;-70
2022/08/26 11:22:10;;;;;;;25.97;3.80;;;;;;;33.85;17.55;99967.36;1748368;82;21028;-68
2022/08/26 11:24:57;;;;;;;16.32;2.87;;;;;;;33.73;17.85;99964.95;1748246;82;21031;-70
2022/08/26 11:27:35;;;;;;;19.23;3.12;;;;;;;33.60;17.86;99959.00;1748116;82;21112;-70
2022/08/26 11:30:19;;;;;;;12.53;2.30;;;;;;;33.54;18.55;99957.91;1748489;82;21122;-71
2022/08/26 11:32:52;;;;;;;10.18;2.60;;;;;;;33.43;18.85;99951.74;1748325;82;21108;-70
2022/08/26 11:35:24;;;;;;;13.70;2.80;;;;;;;33.48;19.26;99962.86;1748185;82;21025;-69
2022/08/26 11:38:04;;;;;;;15.28;2.30;;;;;;;33.49;19.40;99960.97;1748279;82;21088;-70
2022/08/26 11:40:34;;;;;;;11.70;2.45;;;;;;;33.39;18.97;99960.03;1748182;82;21045;-70
2022/08/26 11:43:17;;;;;;;11.33;2.17;;;;;;;33.22;19.29;99956.36;1748500;82;21122;-71